sensor_id;sensor_type;location;lat;lon;timestamp;temperature;humidity
3360;DHT22;1693;49.602;11.046;2023-08-17T00:01:37;20.20;99.90
3360;DHT22;1693;49.602;11.046;2023-08-17T00:04:04;20.20;99.90
3360;DHT22;1693;49.602;11.046;2023-08-17T00:06:30;20.30;99.90
3360;DHT22;1693;49.602;11.046;2023-08-17T00:08:57;20.20;99.90
3360;DHT22;1693;49.602;11.046;2023-08-17T00:11:25;20.20;99.90
3360;DHT22;1693;49.602;11.046;2023-08-17T00:13:52;20.30;99.90
3360;DHT22;1693;49.602;11.046;2023-08-17T00:16:19;20.30;99.90
3360;DHT22;1693;49.602;11.046;2023-08-17T00:18:47;20.30;99.90
3360;DHT22;1693;49.602;11.046;2023-08-17T00:21:15;20.40;99.90
3360;DHT22;1693;49.602;11.046;2023-08-17T00:23:42;20.40;99.90
3360;DHT22;1693;49.602;11.046;2023-08-17T00:26:09;20.60;99.90
3360;DHT22;1693;49.602;11.046;2023-08-17T00:28:37;20.80;99.90
3360;DHT22;1693;49.602;11.046;2023-08-17T00:31:04;20.80;99.90
3360;DHT22;1693;49.602;11.046;2023-08-17T00:33:31;20.70;99.90
3360;DHT22;1693;49.602;11.046;2023-08-17T00:35:59;20.60;99.90
3360;DHT22;1693;49.602;11.046;2023-08-17T00:38:26;20.50;99.90
3360;DHT22;1693;49.602;11.046;2023-08-17T00:40:53;20.60;99.90
3360;DHT22;1693;49.602;11.046;2023-08-17T00:43:21;20.50;99.90
3360;DHT22;1693;49.602;11.046;2023-08-17T00:45:48;20.60;99.90
3360;DHT22;1693;49.602;11.046;2023-08-17T00:48:15;20.70;99.90
3360;DHT22;1693;49.602;11.046;2023-08-17T00:50:42;20.70;99.90
3360;DHT22;1693;49.602;11.046;2023-08-17T00:53:11;20.60;99.90
3360;DHT22;1693;49.602;11.046;2023-08-17T00:55:39;20.60;99.90
3360;DHT22;1693;49.602;11.046;2023-08-17T00:58:07;20.60;99.90
3360;DHT22;1693;49.602;11.046;2023-08-17T01:00:36;20.60;99.90
3360;DHT22;1693;49.602;11.046;2023-08-17T01:03:03;20.50;99.90
3360;DHT22;1693;49.602;11.046;2023-08-17T01:05:31;20.50;99.90
3360;DHT22;1693;49.602;11.046;2023-08-17T01:08:06;20.60;99.90
3360;DHT22;1693;49.602;11.046;2023-08-17T01:10:41;20.60;99.90
3360;DHT22;1693;49.602;11.046;2023-08-17T01:13:14;20.50;99.90
3360;DHT22;1693;49.602;11.046;2023-08-17T01:15:46;20.50;99.90
3360;DHT22;1693;49.602;11.046;2023-08-17T01:18:21;20.60;99.90
3360;DHT22;1693;49.602;11.046;2023-08-17T01:20:50;20.60;99.90
3360;DHT22;1693;49.602;11.046;2023-08-17T01:23:19;20.60;99.90
3360;DHT22;1693;49.602;11.046;2023-08-17T01:25:46;20.40;99.90
3360;DHT22;1693;49.602;11.046;2023-08-17T01:28:14;20.30;99.90
3360;DHT22;1693;49.602;11.046;2023-08-17T01:30:49;20.40;99.90
3360;DHT22;1693;49.602;11.046;2023-08-17T01:33:24;20.40;99.90
3360;DHT22;1693;49.602;11.046;2023-08-17T01:35:59;20.40;99.90
3360;DHT22;1693;49.602;11.046;2023-08-17T01:38:29;20.40;99.90
3360;DHT22;1693;49.602;11.046;2023-08-17T01:40:57;20.20;99.90
3360;DHT22;1693;49.602;11.046;2023-08-17T01:43:25;20.00;99.90
3360;DHT22;1693;49.602;11.046;2023-08-17T01:45:52;20.00;99.90
3360;DHT22;1693;49.602;11.046;2023-08-17T01:48:19;20.00;99.90
3360;DHT22;1693;49.602;11.046;2023-08-17T01:50:46;20.00;99.90
3360;DHT22;1693;49.602;11.046;2023-08-17T01:53:13;19.90;99.90
3360;DHT22;1693;49.602;11.046;2023-08-17T01:55:42;19.90;99.90
3360;DHT22;1693;49.602;11.046;2023-08-17T01:58:09;19.80;99.90
3360;DHT22;1693;49.602;11.046;2023-08-17T02:00:38;19.80;99.90
3360;DHT22;1693;49.602;11.046;2023-08-17T02:03:07;19.80;99.90
3360;DHT22;1693;49.602;11.046;2023-08-17T02:05:36;19.70;99.90
3360;DHT22;1693;49.602;11.046;2023-08-17T02:08:03;19.70;99.90
3360;DHT22;1693;49.602;11.046;2023-08-17T02:10:30;19.60;99.90
3360;DHT22;1693;49.602;11.046;2023-08-17T02:13:01;19.70;99.90
3360;DHT22;1693;49.602;11.046;2023-08-17T02:15:28;19.80;99.90
3360;DHT22;1693;49.602;11.046;2023-08-17T02:17:56;19.90;99.90
3360;DHT22;1693;49.602;11.046;2023-08-17T02:20:23;20.00;99.90
3360;DHT22;1693;49.602;11.046;2023-08-17T02:22:50;20.10;99.90
3360;DHT22;1693;49.602;11.046;2023-08-17T02:25:17;20.20;99.90
3360;DHT22;1693;49.602;11.046;2023-08-17T02:27:46;20.30;99.90
3360;DHT22;1693;49.602;11.046;2023-08-17T02:30:17;20.40;99.90
3360;DHT22;1693;49.602;11.046;2023-08-17T02:32:46;20.60;99.90
3360;DHT22;1693;49.602;11.046;2023-08-17T02:35:16;20.80;99.90
3360;DHT22;1693;49.602;11.046;2023-08-17T02:37:43;20.80;99.90
3360;DHT22;1693;49.602;11.046;2023-08-17T02:40:10;20.70;99.90
3360;DHT22;1693;49.602;11.046;2023-08-17T02:42:38;20.80;99.90
3360;DHT22;1693;49.602;11.046;2023-08-17T02:45:06;20.70;99.90
3360;DHT22;1693;49.602;11.046;2023-08-17T02:47:35;20.60;99.90
3360;DHT22;1693;49.602;11.046;2023-08-17T02:50:02;20.50;99.90
3360;DHT22;1693;49.602;11.046;2023-08-17T02:52:29;20.60;99.90
3360;DHT22;1693;49.602;11.046;2023-08-17T02:54:56;20.60;99.90
3360;DHT22;1693;49.602;11.046;2023-08-17T02:57:24;20.60;99.90
3360;DHT22;1693;49.602;11.046;2023-08-17T02:59:51;20.60;99.90
3360;DHT22;1693;49.602;11.046;2023-08-17T03:02:18;20.60;99.90
3360;DHT22;1693;49.602;11.046;2023-08-17T03:04:50;20.60;99.90
3360;DHT22;1693;49.602;11.046;2023-08-17T03:07:18;20.60;99.90
3360;DHT22;1693;49.602;11.046;2023-08-17T03:09:46;20.70;99.90
3360;DHT22;1693;49.602;11.046;2023-08-17T03:12:14;20.80;99.90
3360;DHT22;1693;49.602;11.046;2023-08-17T03:14:42;20.70;99.90
3360;DHT22;1693;49.602;11.046;2023-08-17T03:17:09;20.90;99.90
3360;DHT22;1693;49.602;11.046;2023-08-17T03:19:36;20.90;99.90
3360;DHT22;1693;49.602;11.046;2023-08-17T03:22:04;20.70;99.90
3360;DHT22;1693;49.602;11.046;2023-08-17T03:24:33;20.70;99.90
3360;DHT22;1693;49.602;11.046;2023-08-17T03:27:00;20.60;99.90
3360;DHT22;1693;49.602;11.046;2023-08-17T03:29:28;20.50;99.90
3360;DHT22;1693;49.602;11.046;2023-08-17T03:31:58;20.60;99.90
3360;DHT22;1693;49.602;11.046;2023-08-17T03:34:26;20.60;99.90
3360;DHT22;1693;49.602;11.046;2023-08-17T03:36:54;20.60;99.90
3360;DHT22;1693;49.602;11.046;2023-08-17T03:39:22;20.70;99.90
3360;DHT22;1693;49.602;11.046;2023-08-17T03:41:49;20.60;99.90
3360;DHT22;1693;49.602;11.046;2023-08-17T03:44:17;20.50;99.90
3360;DHT22;1693;49.602;11.046;2023-08-17T03:46:44;20.40;99.90
3360;DHT22;1693;49.602;11.046;2023-08-17T03:49:11;20.30;99.90
3360;DHT22;1693;49.602;11.046;2023-08-17T03:51:37;20.30;99.90
3360;DHT22;1693;49.602;11.046;2023-08-17T03:54:04;20.20;99.90
3360;DHT22;1693;49.602;11.046;2023-08-17T03:56:34;20.10;99.90
3360;DHT22;1693;49.602;11.046;2023-08-17T03:59:02;20.00;99.90
3360;DHT22;1693;49.602;11.046;2023-08-17T04:01:30;20.10;99.90
3360;DHT22;1693;49.602;11.046;2023-08-17T04:03:57;20.20;99.90
3360;DHT22;1693;49.602;11.046;2023-08-17T04:06:26;20.10;99.90
3360;DHT22;1693;49.602;11.046;2023-08-17T04:08:53;20.10;99.90
3360;DHT22;1693;49.602;11.046;2023-08-17T04:11:20;20.00;99.90
3360;DHT22;1693;49.602;11.046;2023-08-17T04:13:48;19.90;99.90
3360;DHT22;1693;49.602;11.046;2023-08-17T04:16:15;19.90;99.90
3360;DHT22;1693;49.602;11.046;2023-08-17T04:18:43;19.80;99.90
3360;DHT22;1693;49.602;11.046;2023-08-17T04:21:09;19.80;99.90
3360;DHT22;1693;49.602;11.046;2023-08-17T04:23:36;19.70;99.90
3360;DHT22;1693;49.602;11.046;2023-08-17T04:26:03;19.70;99.90
3360;DHT22;1693;49.602;11.046;2023-08-17T04:28:30;19.70;99.90
3360;DHT22;1693;49.602;11.046;2023-08-17T04:31:01;19.70;99.90
3360;DHT22;1693;49.602;11.046;2023-08-17T04:33:28;19.70;99.90
3360;DHT22;1693;49.602;11.046;2023-08-17T04:35:55;19.60;99.90
3360;DHT22;1693;49.602;11.046;2023-08-17T04:38:25;19.60;99.90
3360;DHT22;1693;49.602;11.046;2023-08-17T04:40:52;19.60;99.90
3360;DHT22;1693;49.602;11.046;2023-08-17T04:43:20;19.60;99.90
3360;DHT22;1693;49.602;11.046;2023-08-17T04:45:47;19.50;99.90
3360;DHT22;1693;49.602;11.046;2023-08-17T04:48:17;19.50;99.90
3360;DHT22;1693;49.602;11.046;2023-08-17T04:50:45;19.50;99.90
3360;DHT22;1693;49.602;11.046;2023-08-17T04:53:12;19.40;99.90
3360;DHT22;1693;49.602;11.046;2023-08-17T04:55:40;19.40;99.90
3360;DHT22;1693;49.602;11.046;2023-08-17T04:58:09;19.40;99.90
3360;DHT22;1693;49.602;11.046;2023-08-17T05:00:38;19.50;99.90
3360;DHT22;1693;49.602;11.046;2023-08-17T05:03:04;19.50;99.90
3360;DHT22;1693;49.602;11.046;2023-08-17T05:05:33;19.60;99.90
3360;DHT22;1693;49.602;11.046;2023-08-17T05:08:02;19.70;99.90
3360;DHT22;1693;49.602;11.046;2023-08-17T05:10:31;19.70;99.90
3360;DHT22;1693;49.602;11.046;2023-08-17T05:12:58;19.60;99.90
3360;DHT22;1693;49.602;11.046;2023-08-17T05:15:25;19.50;99.90
3360;DHT22;1693;49.602;11.046;2023-08-17T05:17:52;19.40;99.90
3360;DHT22;1693;49.602;11.046;2023-08-17T05:20:19;19.40;99.90
3360;DHT22;1693;49.602;11.046;2023-08-17T05:22:48;19.50;99.90
3360;DHT22;1693;49.602;11.046;2023-08-17T05:25:15;19.50;99.90
3360;DHT22;1693;49.602;11.046;2023-08-17T05:27:42;19.50;99.90
3360;DHT22;1693;49.602;11.046;2023-08-17T05:30:10;19.60;99.90
3360;DHT22;1693;49.602;11.046;2023-08-17T05:32:37;19.70;99.90
3360;DHT22;1693;49.602;11.046;2023-08-17T05:35:04;19.80;99.90
3360;DHT22;1693;49.602;11.046;2023-08-17T05:37:31;20.00;99.90
3360;DHT22;1693;49.602;11.046;2023-08-17T05:39:59;20.10;99.90
3360;DHT22;1693;49.602;11.046;2023-08-17T05:42:26;20.30;99.90
3360;DHT22;1693;49.602;11.046;2023-08-17T05:44:53;20.50;99.90
3360;DHT22;1693;49.602;11.046;2023-08-17T05:47:20;20.70;99.90
3360;DHT22;1693;49.602;11.046;2023-08-17T05:49:48;20.70;99.90
3360;DHT22;1693;49.602;11.046;2023-08-17T05:52:19;20.90;99.90
3360;DHT22;1693;49.602;11.046;2023-08-17T05:54:49;21.10;99.90
3360;DHT22;1693;49.602;11.046;2023-08-17T05:57:21;21.40;99.90
3360;DHT22;1693;49.602;11.046;2023-08-17T05:59:49;21.60;99.90
3360;DHT22;1693;49.602;11.046;2023-08-17T06:02:15;21.80;99.90
3360;DHT22;1693;49.602;11.046;2023-08-17T06:04:42;22.00;99.90
3360;DHT22;1693;49.602;11.046;2023-08-17T06:07:09;22.10;99.90
3360;DHT22;1693;49.602;11.046;2023-08-17T06:09:36;22.10;99.90
3360;DHT22;1693;49.602;11.046;2023-08-17T06:12:04;22.10;99.90
3360;DHT22;1693;49.602;11.046;2023-08-17T06:14:33;22.10;99.90
3360;DHT22;1693;49.602;11.046;2023-08-17T06:17:01;22.30;99.90
3360;DHT22;1693;49.602;11.046;2023-08-17T06:19:28;22.50;99.90
3360;DHT22;1693;49.602;11.046;2023-08-17T06:21:56;22.40;99.90
3360;DHT22;1693;49.602;11.046;2023-08-17T06:24:25;22.50;99.90
3360;DHT22;1693;49.602;11.046;2023-08-17T06:26:54;22.50;99.90
3360;DHT22;1693;49.602;11.046;2023-08-17T06:29:22;22.70;99.90
3360;DHT22;1693;49.602;11.046;2023-08-17T06:31:53;22.80;99.90
3360;DHT22;1693;49.602;11.046;2023-08-17T06:34:24;22.90;99.90
3360;DHT22;1693;49.602;11.046;2023-08-17T06:36:58;23.00;99.90
3360;DHT22;1693;49.602;11.046;2023-08-17T06:39:26;23.20;99.90
3360;DHT22;1693;49.602;11.046;2023-08-17T06:41:53;23.10;99.90
3360;DHT22;1693;49.602;11.046;2023-08-17T06:44:20;23.40;99.90
3360;DHT22;1693;49.602;11.046;2023-08-17T06:46:47;23.40;99.90
3360;DHT22;1693;49.602;11.046;2023-08-17T06:49:15;23.30;99.90
3360;DHT22;1693;49.602;11.046;2023-08-17T06:51:42;23.50;99.90
3360;DHT22;1693;49.602;11.046;2023-08-17T06:54:09;23.50;99.90
3360;DHT22;1693;49.602;11.046;2023-08-17T06:56:36;23.50;99.90
3360;DHT22;1693;49.602;11.046;2023-08-17T06:59:03;23.70;99.90
3360;DHT22;1693;49.602;11.046;2023-08-17T07:01:30;24.00;99.90
3360;DHT22;1693;49.602;11.046;2023-08-17T07:03:57;24.00;99.90
3360;DHT22;1693;49.602;11.046;2023-08-17T07:06:26;24.20;99.90
3360;DHT22;1693;49.602;11.046;2023-08-17T07:08:54;24.20;99.90
3360;DHT22;1693;49.602;11.046;2023-08-17T07:11:22;24.20;99.90
3360;DHT22;1693;49.602;11.046;2023-08-17T07:13:50;24.10;99.90
3360;DHT22;1693;49.602;11.046;2023-08-17T07:16:17;24.00;99.90
3360;DHT22;1693;49.602;11.046;2023-08-17T07:18:44;24.10;99.90
3360;DHT22;1693;49.602;11.046;2023-08-17T07:21:11;24.20;99.90
3360;DHT22;1693;49.602;11.046;2023-08-17T07:23:39;24.30;99.90
3360;DHT22;1693;49.602;11.046;2023-08-17T07:26:06;24.20;99.90
3360;DHT22;1693;49.602;11.046;2023-08-17T07:28:33;24.60;99.90
3360;DHT22;1693;49.602;11.046;2023-08-17T07:31:00;24.70;99.90
3360;DHT22;1693;49.602;11.046;2023-08-17T07:33:27;24.90;99.90
3360;DHT22;1693;49.602;11.046;2023-08-17T07:35:54;25.10;99.90
3360;DHT22;1693;49.602;11.046;2023-08-17T07:38:24;25.20;99.90
3360;DHT22;1693;49.602;11.046;2023-08-17T07:40:52;25.40;99.90
3360;DHT22;1693;49.602;11.046;2023-08-17T07:43:19;25.60;99.90
3360;DHT22;1693;49.602;11.046;2023-08-17T07:45:52;25.60;99.90
3360;DHT22;1693;49.602;11.046;2023-08-17T07:48:19;25.60;99.90
3360;DHT22;1693;49.602;11.046;2023-08-17T07:50:48;25.90;99.90
3360;DHT22;1693;49.602;11.046;2023-08-17T07:53:16;26.00;99.90
3360;DHT22;1693;49.602;11.046;2023-08-17T07:55:43;26.10;99.90
3360;DHT22;1693;49.602;11.046;2023-08-17T07:58:11;26.20;99.90
3360;DHT22;1693;49.602;11.046;2023-08-17T08:00:38;26.10;99.90
3360;DHT22;1693;49.602;11.046;2023-08-17T08:03:05;26.20;99.90
3360;DHT22;1693;49.602;11.046;2023-08-17T08:05:32;26.30;99.90
3360;DHT22;1693;49.602;11.046;2023-08-17T08:07:59;26.30;99.90
3360;DHT22;1693;49.602;11.046;2023-08-17T08:10:27;26.50;99.90
3360;DHT22;1693;49.602;11.046;2023-08-17T08:12:54;26.60;99.90
3360;DHT22;1693;49.602;11.046;2023-08-17T08:15:22;26.70;99.90
3360;DHT22;1693;49.602;11.046;2023-08-17T08:17:49;26.60;99.90
3360;DHT22;1693;49.602;11.046;2023-08-17T08:20:16;26.60;99.90
3360;DHT22;1693;49.602;11.046;2023-08-17T08:22:43;26.80;99.90
3360;DHT22;1693;49.602;11.046;2023-08-17T08:25:10;27.00;99.90
3360;DHT22;1693;49.602;11.046;2023-08-17T08:27:37;27.10;99.90
3360;DHT22;1693;49.602;11.046;2023-08-17T08:30:07;27.20;99.90
3360;DHT22;1693;49.602;11.046;2023-08-17T08:32:35;27.20;99.90
3360;DHT22;1693;49.602;11.046;2023-08-17T08:35:02;27.30;99.90
3360;DHT22;1693;49.602;11.046;2023-08-17T08:37:30;27.40;99.90
3360;DHT22;1693;49.602;11.046;2023-08-17T08:39:57;27.30;99.90
3360;DHT22;1693;49.602;11.046;2023-08-17T08:42:25;27.40;99.90
3360;DHT22;1693;49.602;11.046;2023-08-17T08:44:52;27.50;99.90
3360;DHT22;1693;49.602;11.046;2023-08-17T08:47:20;27.60;99.90
3360;DHT22;1693;49.602;11.046;2023-08-17T08:49:58;27.60;99.90
3360;DHT22;1693;49.602;11.046;2023-08-17T08:52:32;27.80;99.90
3360;DHT22;1693;49.602;11.046;2023-08-17T08:55:10;27.90;99.90
3360;DHT22;1693;49.602;11.046;2023-08-17T08:57:39;27.80;99.90
3360;DHT22;1693;49.602;11.046;2023-08-17T09:00:08;27.90;99.90
3360;DHT22;1693;49.602;11.046;2023-08-17T09:02:35;27.90;99.90
3360;DHT22;1693;49.602;11.046;2023-08-17T09:05:06;27.90;99.90
3360;DHT22;1693;49.602;11.046;2023-08-17T09:07:33;28.10;99.90
3360;DHT22;1693;49.602;11.046;2023-08-17T09:10:02;28.30;99.90
3360;DHT22;1693;49.602;11.046;2023-08-17T09:42:07;29.30;99.90
3360;DHT22;1693;49.602;11.046;2023-08-17T09:44:37;29.40;99.90
3360;DHT22;1693;49.602;11.046;2023-08-17T09:47:05;29.50;99.90
3360;DHT22;1693;49.602;11.046;2023-08-17T09:49:32;29.60;99.90
3360;DHT22;1693;49.602;11.046;2023-08-17T09:52:00;29.10;99.90
3360;DHT22;1693;49.602;11.046;2023-08-17T09:54:30;29.10;99.90
3360;DHT22;1693;49.602;11.046;2023-08-17T09:56:59;29.20;99.90
3360;DHT22;1693;49.602;11.046;2023-08-17T09:59:26;29.50;99.90
3360;DHT22;1693;49.602;11.046;2023-08-17T10:01:54;29.50;99.90
3360;DHT22;1693;49.602;11.046;2023-08-17T10:06:55;29.90;99.90
3360;DHT22;1693;49.602;11.046;2023-08-17T10:09:25;29.70;99.90
3360;DHT22;1693;49.602;11.046;2023-08-17T10:11:56;29.60;99.90
3360;DHT22;1693;49.602;11.046;2023-08-17T10:14:29;29.60;99.90
3360;DHT22;1693;49.602;11.046;2023-08-17T10:17:06;29.50;99.90
3360;DHT22;1693;49.602;11.046;2023-08-17T10:19:41;29.80;99.90
3360;DHT22;1693;49.602;11.046;2023-08-17T10:22:12;30.10;99.90
3360;DHT22;1693;49.602;11.046;2023-08-17T10:24:42;30.30;99.90
3360;DHT22;1693;49.602;11.046;2023-08-17T10:27:10;30.50;99.90
3360;DHT22;1693;49.602;11.046;2023-08-17T10:29:39;30.70;99.90
3360;DHT22;1693;49.602;11.046;2023-08-17T10:32:07;31.00;99.90
3360;DHT22;1693;49.602;11.046;2023-08-17T10:34:34;31.20;99.90
3360;DHT22;1693;49.602;11.046;2023-08-17T10:37:02;31.20;99.90
3360;DHT22;1693;49.602;11.046;2023-08-17T10:39:30;30.80;99.90
3360;DHT22;1693;49.602;11.046;2023-08-17T10:41:58;30.90;99.90
3360;DHT22;1693;49.602;11.046;2023-08-17T10:44:43;30.60;99.90
3360;DHT22;1693;49.602;11.046;2023-08-17T10:47:29;30.90;99.90
3360;DHT22;1693;49.602;11.046;2023-08-17T10:49:58;31.20;99.90
3360;DHT22;1693;49.602;11.046;2023-08-17T10:52:27;31.10;99.90
3360;DHT22;1693;49.602;11.046;2023-08-17T10:54:55;30.70;99.90
3360;DHT22;1693;49.602;11.046;2023-08-17T10:57:30;30.80;99.90
3360;DHT22;1693;49.602;11.046;2023-08-17T11:00:21;30.80;99.90
3360;DHT22;1693;49.602;11.046;2023-08-17T11:02:53;31.00;99.90
3360;DHT22;1693;49.602;11.046;2023-08-17T11:05:41;31.20;99.90
3360;DHT22;1693;49.602;11.046;2023-08-17T11:08:10;31.30;99.90
3360;DHT22;1693;49.602;11.046;2023-08-17T11:10:40;31.60;99.90
3360;DHT22;1693;49.602;11.046;2023-08-17T11:13:08;31.80;99.90
3360;DHT22;1693;49.602;11.046;2023-08-17T11:15:39;31.60;99.90
3360;DHT22;1693;49.602;11.046;2023-08-17T11:18:08;31.70;99.90
3360;DHT22;1693;49.602;11.046;2023-08-17T11:20:37;31.60;99.90
3360;DHT22;1693;49.602;11.046;2023-08-17T11:23:04;31.40;99.90
3360;DHT22;1693;49.602;11.046;2023-08-17T11:25:32;31.10;99.90
3360;DHT22;1693;49.602;11.046;2023-08-17T11:28:00;30.90;99.90
3360;DHT22;1693;49.602;11.046;2023-08-17T11:30:27;31.10;99.90
3360;DHT22;1693;49.602;11.046;2023-08-17T11:32:56;31.10;99.90
3360;DHT22;1693;49.602;11.046;2023-08-17T11:35:24;31.30;99.90
3360;DHT22;1693;49.602;11.046;2023-08-17T11:37:51;31.50;99.90
3360;DHT22;1693;49.602;11.046;2023-08-17T11:40:18;31.70;99.90
3360;DHT22;1693;49.602;11.046;2023-08-17T11:42:46;32.40;99.90
3360;DHT22;1693;49.602;11.046;2023-08-17T11:45:14;32.50;99.90
3360;DHT22;1693;49.602;11.046;2023-08-17T11:47:42;32.40;99.90
3360;DHT22;1693;49.602;11.046;2023-08-17T11:50:11;32.80;99.90
3360;DHT22;1693;49.602;11.046;2023-08-17T11:52:38;33.40;99.90
3360;DHT22;1693;49.602;11.046;2023-08-17T11:55:07;32.90;99.90
3360;DHT22;1693;49.602;11.046;2023-08-17T11:57:38;32.90;99.90
3360;DHT22;1693;49.602;11.046;2023-08-17T12:00:06;32.50;99.90
3360;DHT22;1693;49.602;11.046;2023-08-17T12:02:36;32.30;99.90
3360;DHT22;1693;49.602;11.046;2023-08-17T12:05:09;32.10;99.90
3360;DHT22;1693;49.602;11.046;2023-08-17T12:07:37;32.40;99.90
3360;DHT22;1693;49.602;11.046;2023-08-17T12:10:05;32.40;99.90
3360;DHT22;1693;49.602;11.046;2023-08-17T12:12:36;32.80;99.90
3360;DHT22;1693;49.602;11.046;2023-08-17T12:15:04;32.80;99.90
3360;DHT22;1693;49.602;11.046;2023-08-17T12:17:31;32.90;99.90
3360;DHT22;1693;49.602;11.046;2023-08-17T12:19:59;33.00;99.90
3360;DHT22;1693;49.602;11.046;2023-08-17T12:22:30;33.00;99.90
3360;DHT22;1693;49.602;11.046;2023-08-17T12:24:58;33.20;99.90
3360;DHT22;1693;49.602;11.046;2023-08-17T12:27:25;33.00;99.90
3360;DHT22;1693;49.602;11.046;2023-08-17T12:29:52;32.80;99.90
3360;DHT22;1693;49.602;11.046;2023-08-17T12:32:20;32.50;99.90
3360;DHT22;1693;49.602;11.046;2023-08-17T12:34:47;32.70;99.90
3360;DHT22;1693;49.602;11.046;2023-08-17T13:36:24;35.80;99.90
3360;DHT22;1693;49.602;11.046;2023-08-17T13:38:51;35.70;99.90
3360;DHT22;1693;49.602;11.046;2023-08-17T13:41:18;35.70;99.90
3360;DHT22;1693;49.602;11.046;2023-08-17T13:43:45;36.30;99.90
3360;DHT22;1693;49.602;11.046;2023-08-17T13:46:13;35.80;99.90
3360;DHT22;1693;49.602;11.046;2023-08-17T13:48:41;37.60;99.90
3360;DHT22;1693;49.602;11.046;2023-08-17T13:51:08;37.60;99.70
3360;DHT22;1693;49.602;11.046;2023-08-17T13:53:36;39.90;96.20
3360;DHT22;1693;49.602;11.046;2023-08-17T13:56:04;38.40;95.80
3360;DHT22;1693;49.602;11.046;2023-08-17T13:58:31;36.80;98.40
3360;DHT22;1693;49.602;11.046;2023-08-17T14:00:58;37.50;96.90
3360;DHT22;1693;49.602;11.046;2023-08-17T14:03:25;36.30;96.20
3360;DHT22;1693;49.602;11.046;2023-08-17T14:05:54;35.70;99.90
3360;DHT22;1693;49.602;11.046;2023-08-17T14:08:21;36.50;99.90
3360;DHT22;1693;49.602;11.046;2023-08-17T14:10:48;36.90;99.90
3360;DHT22;1693;49.602;11.046;2023-08-17T14:13:15;36.30;98.80
3360;DHT22;1693;49.602;11.046;2023-08-17T14:15:42;35.30;99.90
3360;DHT22;1693;49.602;11.046;2023-08-17T14:18:09;35.30;99.90
3360;DHT22;1693;49.602;11.046;2023-08-17T14:20:36;36.80;99.90
3360;DHT22;1693;49.602;11.046;2023-08-17T14:23:05;38.70;98.40
3360;DHT22;1693;49.602;11.046;2023-08-17T14:25:31;40.70;96.50
3360;DHT22;1693;49.602;11.046;2023-08-17T14:30:26;41.20;82.60
3360;DHT22;1693;49.602;11.046;2023-08-17T14:32:53;39.80;79.20
3360;DHT22;1693;49.602;11.046;2023-08-17T14:35:20;39.60;88.20
3360;DHT22;1693;49.602;11.046;2023-08-17T14:37:47;39.60;90.10
3360;DHT22;1693;49.602;11.046;2023-08-17T14:40:15;39.40;83.50
3360;DHT22;1693;49.602;11.046;2023-08-17T14:42:43;38.50;81.70
3360;DHT22;1693;49.602;11.046;2023-08-17T14:45:10;37.70;85.30
3360;DHT22;1693;49.602;11.046;2023-08-17T14:47:37;36.80;84.10
3360;DHT22;1693;49.602;11.046;2023-08-17T14:52:32;34.80;90.80
3360;DHT22;1693;49.602;11.046;2023-08-17T14:54:59;33.80;92.80
3360;DHT22;1693;49.602;11.046;2023-08-17T14:57:28;33.20;94.20
3360;DHT22;1693;49.602;11.046;2023-08-17T14:59:55;32.70;97.90
3360;DHT22;1693;49.602;11.046;2023-08-17T15:02:22;32.40;99.90
3360;DHT22;1693;49.602;11.046;2023-08-17T15:04:49;31.80;99.90
3360;DHT22;1693;49.602;11.046;2023-08-17T15:07:16;31.10;99.90
3360;DHT22;1693;49.602;11.046;2023-08-17T15:09:43;30.70;99.90
3360;DHT22;1693;49.602;11.046;2023-08-17T15:12:10;30.50;99.90
3360;DHT22;1693;49.602;11.046;2023-08-17T15:14:38;30.30;99.90
3360;DHT22;1693;49.602;11.046;2023-08-17T15:17:06;30.20;99.90
3360;DHT22;1693;49.602;11.046;2023-08-17T15:24:29;29.20;99.90
3360;DHT22;1693;49.602;11.046;2023-08-17T15:26:57;29.10;99.90
3360;DHT22;1693;49.602;11.046;2023-08-17T15:29:24;28.90;99.90
3360;DHT22;1693;49.602;11.046;2023-08-17T15:31:53;28.70;99.90
3360;DHT22;1693;49.602;11.046;2023-08-17T15:34:20;28.50;99.90
3360;DHT22;1693;49.602;11.046;2023-08-17T15:36:47;28.20;99.90
3360;DHT22;1693;49.602;11.046;2023-08-17T15:39:14;27.90;99.90
3360;DHT22;1693;49.602;11.046;2023-08-17T15:41:41;27.50;99.90
3360;DHT22;1693;49.602;11.046;2023-08-17T15:44:08;27.40;99.90
3360;DHT22;1693;49.602;11.046;2023-08-17T15:46:35;27.30;99.90
3360;DHT22;1693;49.602;11.046;2023-08-17T15:49:03;27.10;99.90
3360;DHT22;1693;49.602;11.046;2023-08-17T15:51:31;27.00;99.90
3360;DHT22;1693;49.602;11.046;2023-08-17T15:53:58;26.90;99.90
3360;DHT22;1693;49.602;11.046;2023-08-17T15:56:25;27.00;99.90
3360;DHT22;1693;49.602;11.046;2023-08-17T15:58:52;27.10;99.90
3360;DHT22;1693;49.602;11.046;2023-08-17T16:01:19;27.10;99.90
3360;DHT22;1693;49.602;11.046;2023-08-17T16:03:47;26.50;99.90
3360;DHT22;1693;49.602;11.046;2023-08-17T16:08:43;25.30;99.90
3360;DHT22;1693;49.602;11.046;2023-08-17T16:11:10;24.70;99.90
3360;DHT22;1693;49.602;11.046;2023-08-17T16:13:38;24.40;99.90
3360;DHT22;1693;49.602;11.046;2023-08-17T16:16:05;24.10;99.90
3360;DHT22;1693;49.602;11.046;2023-08-17T16:18:32;23.90;99.90
3360;DHT22;1693;49.602;11.046;2023-08-17T16:20:59;23.80;99.90
3360;DHT22;1693;49.602;11.046;2023-08-17T16:23:27;23.70;99.90
3360;DHT22;1693;49.602;11.046;2023-08-17T16:25:54;23.60;99.90
3360;DHT22;1693;49.602;11.046;2023-08-17T16:28:22;23.60;99.90
3360;DHT22;1693;49.602;11.046;2023-08-17T16:30:48;23.60;99.90
3360;DHT22;1693;49.602;11.046;2023-08-17T16:33:15;23.60;99.90
3360;DHT22;1693;49.602;11.046;2023-08-17T16:35:42;23.60;99.90
3360;DHT22;1693;49.602;11.046;2023-08-17T16:38:10;23.30;99.90
3360;DHT22;1693;49.602;11.046;2023-08-17T16:40:38;22.70;99.90
3360;DHT22;1693;49.602;11.046;2023-08-17T16:43:05;22.00;99.90
3360;DHT22;1693;49.602;11.046;2023-08-17T16:45:32;21.40;99.90
3360;DHT22;1693;49.602;11.046;2023-08-17T16:48:01;21.10;99.90
3360;DHT22;1693;49.602;11.046;2023-08-17T16:50:30;21.00;99.90
3360;DHT22;1693;49.602;11.046;2023-08-17T16:52:57;20.70;99.90
3360;DHT22;1693;49.602;11.046;2023-08-17T16:55:25;20.60;99.90
3360;DHT22;1693;49.602;11.046;2023-08-17T16:57:53;20.40;99.90
3360;DHT22;1693;49.602;11.046;2023-08-17T17:00:20;20.30;99.90
3360;DHT22;1693;49.602;11.046;2023-08-17T17:02:48;20.10;99.90
3360;DHT22;1693;49.602;11.046;2023-08-17T17:05:17;19.90;99.90
3360;DHT22;1693;49.602;11.046;2023-08-17T17:07:47;19.80;99.90
3360;DHT22;1693;49.602;11.046;2023-08-17T17:10:15;19.60;99.90
3360;DHT22;1693;49.602;11.046;2023-08-17T17:12:44;19.40;99.90
3360;DHT22;1693;49.602;11.046;2023-08-17T17:15:12;19.40;99.90
3360;DHT22;1693;49.602;11.046;2023-08-17T17:17:39;19.20;99.90
3360;DHT22;1693;49.602;11.046;2023-08-17T17:20:07;18.90;99.90
3360;DHT22;1693;49.602;11.046;2023-08-17T17:22:35;18.80;99.90
3360;DHT22;1693;49.602;11.046;2023-08-17T17:25:01;18.60;99.90
3360;DHT22;1693;49.602;11.046;2023-08-17T17:27:29;18.50;99.90
3360;DHT22;1693;49.602;11.046;2023-08-17T17:29:56;18.50;99.90
3360;DHT22;1693;49.602;11.046;2023-08-17T17:32:24;18.30;99.90
3360;DHT22;1693;49.602;11.046;2023-08-17T17:34:51;18.30;99.90